Hallum, Netherlands
Current Conditions -  °F | °C
As of 2:25 AM on Saturday 29 Nov 2014 (Local Time) from EHLW Reporting Station
Haze Haze  
Wind Chill: 27°   Ceiling: Unl
Heat Index: 36°   Visibility: 4mi
Dew Point: 32°   Wind: 14mph
Humidity: 87%   Direction: 100°E
Pressure: 29.97"   Gusts: NA
Location:  53.31°N, 5.78°E
Report Text: EHLW 290125Z AUTO 10012KT 6000 BR NCD 02/M00 Q1015 WHT
Loading
Personal Weather Stations






























Interactive Weather Map New forecast layout! Learn more

10-Day Weather Forecast

Advertisements
Track Severe Weather on mobile